Aeroporto :
LOGIN :

Iscrizione | Disclaimer

   EN    FR    IT 

 










Sommario :    VFR   VFR Marginale   IFR   IFR Intensivo   IFR Molto Intensivo
Visibilità : 
Base nubi : 
>= 8 km
>= 3000ft
5 / 8 km
1000 / 3000 ft
1500m / 5 km
500 / 1000 ft
800 / 1500m
200 / 500 ft
< 800m
< 200 ft
Simboli :   Temporali  Nebbia  Neve Forte  Precipitazioni Forti  Vento > 20 kt
SIGMETs :   Varie  Temporali  Ghiacco  Turbolenza  Onda orograficha  Ceneri Vulcaniche






- Altitudine del aeroporto : 79 ft
- Codice IATA : SPU


LDSP - Split

ULTIMO METAR :
  • 240900Z VRB02KT 9999 -RA FEW025 BKN050 13/07 Q1007 NOSIG

METARs OBSOLETI :
  • 240830Z 13003KT 090V170 9999 FEW060 13/06 Q1006 TEMPO TSRA FEW020CB
  • 240800Z VRB02KT 9999 FEW075 13/05 Q1006 TEMPO TSRA FEW020CB
  • 240730Z 01003KT 300V050 9999 FEW055 13/05 Q1006 NOSIG
  • 240700Z 35005KT 310V030 9999 FEW045 SCT060 13/06 Q1006 NOSIG
  • 240630Z 31007KT 280V350 9999 SCT060 12/07 Q1006 NOSIG
  • 240600Z VRB01KT 9999 FEW046 BKN056 12/07 Q1006 NOSIG
  • 240530Z VRB01KT 9999 FEW046 BKN056 12/06 Q1006 NOSIG
  • 240500Z 16003KT 140V220 9999 FEW046 BKN056 11/06 Q1006 NOSIG
  • 240430Z 33007KT 310V020 9999 FEW060 10/06 Q1005 NOSIG

TAF TAF LDSP
Valido dal 24 a 06 ore il 25 a 06 ore UTC


240525Z 2406/2506 34004KT CAVOK TX13/2413Z TN07/2504Z
TEMPO 2406/2415 VRB15KT 3000 TSRA FEW020CB BKN025



MetMap, La meteo Aeronautica in un colpo d'occhio ! - Copyright ORBIFLY Dicembre 2007 - Disclaimer

ORBIFLY MET'MAP TEAM :

Programmazione e sviluppo : Alexandra Zaïnal
Concezione : Baudouin d'Aumeries
Supporto tecnico e logistico : Manuel Goepfert
Aiuto : Marc-Olivier Méhu
Aiuto per la traduzione : Arnaldo La Scala




FONTI E CREDITI :

   NOAA